sensor_id;sensor_type;location;lat;lon;timestamp;P1;durP1;ratioP1;P2;durP2;ratioP2
69991;SDS011;57332;51.320;-0.580;2023-08-31T00:01:01;5.90;;;2.33;;
69991;SDS011;57332;51.320;-0.580;2023-08-31T00:03:31;4.35;;;2.35;;
69991;SDS011;57332;51.320;-0.580;2023-08-31T00:06:01;3.67;;;1.98;;
69991;SDS011;57332;51.320;-0.580;2023-08-31T00:08:28;5.28;;;2.10;;
69991;SDS011;57332;51.320;-0.580;2023-08-31T00:10:57;3.88;;;2.15;;
69991;SDS011;57332;51.320;-0.580;2023-08-31T00:13:25;4.60;;;1.90;;
69991;SDS011;57332;51.320;-0.580;2023-08-31T00:15:57;4.70;;;2.00;;
69991;SDS011;57332;51.320;-0.580;2023-08-31T00:18:25;6.70;;;2.33;;
69991;SDS011;57332;51.320;-0.580;2023-08-31T00:20:52;6.32;;;2.25;;
69991;SDS011;57332;51.320;-0.580;2023-08-31T00:23:19;4.43;;;2.10;;
69991;SDS011;57332;51.320;-0.580;2023-08-31T00:25:47;4.72;;;2.58;;
69991;SDS011;57332;51.320;-0.580;2023-08-31T00:28:17;5.28;;;2.08;;
69991;SDS011;57332;51.320;-0.580;2023-08-31T00:30:45;5.40;;;2.20;;
69991;SDS011;57332;51.320;-0.580;2023-08-31T00:33:13;4.68;;;2.20;;
69991;SDS011;57332;51.320;-0.580;2023-08-31T00:35:41;3.35;;;2.17;;
69991;SDS011;57332;51.320;-0.580;2023-08-31T00:38:13;5.80;;;2.20;;
69991;SDS011;57332;51.320;-0.580;2023-08-31T00:40:41;5.22;;;1.85;;
69991;SDS011;57332;51.320;-0.580;2023-08-31T00:43:12;5.78;;;2.00;;
69991;SDS011;57332;51.320;-0.580;2023-08-31T00:45:42;4.07;;;1.90;;
69991;SDS011;57332;51.320;-0.580;2023-08-31T00:48:09;4.13;;;2.05;;
69991;SDS011;57332;51.320;-0.580;2023-08-31T00:50:37;4.57;;;2.00;;
69991;SDS011;57332;51.320;-0.580;2023-08-31T00:53:04;4.65;;;1.98;;
69991;SDS011;57332;51.320;-0.580;2023-08-31T00:55:31;6.72;;;2.35;;
69991;SDS011;57332;51.320;-0.580;2023-08-31T00:57:59;4.60;;;2.17;;
69991;SDS011;57332;51.320;-0.580;2023-08-31T01:00:30;4.55;;;2.17;;
69991;SDS011;57332;51.320;-0.580;2023-08-31T01:03:01;5.22;;;2.20;;
69991;SDS011;57332;51.320;-0.580;2023-08-31T01:08:11;4.32;;;1.50;;
69991;SDS011;57332;51.320;-0.580;2023-08-31T01:10:47;4.85;;;2.20;;
69991;SDS011;57332;51.320;-0.580;2023-08-31T01:13:15;3.08;;;1.85;;
69991;SDS011;57332;51.320;-0.580;2023-08-31T01:15:45;7.18;;;2.20;;
69991;SDS011;57332;51.320;-0.580;2023-08-31T01:18:14;4.90;;;1.88;;
69991;SDS011;57332;51.320;-0.580;2023-08-31T01:23:30;5.13;;;1.83;;
69991;SDS011;57332;51.320;-0.580;2023-08-31T01:25:58;5.00;;;2.25;;
69991;SDS011;57332;51.320;-0.580;2023-08-31T01:28:25;4.18;;;1.83;;
69991;SDS011;57332;51.320;-0.580;2023-08-31T01:30:52;5.28;;;2.00;;
69991;SDS011;57332;51.320;-0.580;2023-08-31T01:33:19;4.70;;;2.17;;
69991;SDS011;57332;51.320;-0.580;2023-08-31T01:35:48;4.72;;;1.75;;
69991;SDS011;57332;51.320;-0.580;2023-08-31T01:38:17;3.67;;;1.80;;
69991;SDS011;57332;51.320;-0.580;2023-08-31T01:40:52;4.97;;;2.00;;
69991;SDS011;57332;51.320;-0.580;2023-08-31T01:43:20;5.07;;;1.90;;
69991;SDS011;57332;51.320;-0.580;2023-08-31T01:45:48;3.72;;;1.80;;
69991;SDS011;57332;51.320;-0.580;2023-08-31T01:48:15;5.47;;;1.90;;
69991;SDS011;57332;51.320;-0.580;2023-08-31T01:50:42;3.63;;;1.90;;
69991;SDS011;57332;51.320;-0.580;2023-08-31T01:53:10;4.30;;;2.17;;
69991;SDS011;57332;51.320;-0.580;2023-08-31T01:55:38;3.47;;;1.77;;
69991;SDS011;57332;51.320;-0.580;2023-08-31T01:58:05;4.47;;;1.88;;
69991;SDS011;57332;51.320;-0.580;2023-08-31T02:00:32;4.13;;;1.85;;
69991;SDS011;57332;51.320;-0.580;2023-08-31T02:03:01;4.20;;;1.90;;
69991;SDS011;57332;51.320;-0.580;2023-08-31T02:05:29;5.22;;;1.88;;
69991;SDS011;57332;51.320;-0.580;2023-08-31T02:07:56;3.53;;;1.70;;
69991;SDS011;57332;51.320;-0.580;2023-08-31T02:10:23;3.33;;;1.77;;
69991;SDS011;57332;51.320;-0.580;2023-08-31T02:12:50;4.40;;;1.85;;
69991;SDS011;57332;51.320;-0.580;2023-08-31T02:15:17;5.22;;;1.98;;
69991;SDS011;57332;51.320;-0.580;2023-08-31T02:17:43;5.97;;;1.90;;
69991;SDS011;57332;51.320;-0.580;2023-08-31T02:20:11;7.25;;;2.25;;
69991;SDS011;57332;51.320;-0.580;2023-08-31T02:22:37;3.60;;;2.13;;
69991;SDS011;57332;51.320;-0.580;2023-08-31T02:25:04;3.80;;;1.90;;
69991;SDS011;57332;51.320;-0.580;2023-08-31T02:27:32;5.82;;;2.08;;
69991;SDS011;57332;51.320;-0.580;2023-08-31T02:29:58;5.90;;;2.50;;
69991;SDS011;57332;51.320;-0.580;2023-08-31T02:32:25;4.40;;;1.88;;
69991;SDS011;57332;51.320;-0.580;2023-08-31T02:34:52;3.50;;;1.80;;
69991;SDS011;57332;51.320;-0.580;2023-08-31T02:37:19;5.13;;;1.90;;
69991;SDS011;57332;51.320;-0.580;2023-08-31T02:39:46;3.30;;;1.92;;
69991;SDS011;57332;51.320;-0.580;2023-08-31T02:42:16;3.22;;;1.60;;
69991;SDS011;57332;51.320;-0.580;2023-08-31T02:44:43;4.13;;;1.80;;
69991;SDS011;57332;51.320;-0.580;2023-08-31T02:47:09;6.82;;;2.10;;
69991;SDS011;57332;51.320;-0.580;2023-08-31T02:49:36;3.60;;;2.00;;
69991;SDS011;57332;51.320;-0.580;2023-08-31T02:52:03;5.63;;;2.15;;
69991;SDS011;57332;51.320;-0.580;2023-08-31T02:54:30;5.03;;;1.73;;
69991;SDS011;57332;51.320;-0.580;2023-08-31T02:56:57;4.55;;;2.30;;
69991;SDS011;57332;51.320;-0.580;2023-08-31T02:59:24;3.88;;;1.90;;
69991;SDS011;57332;51.320;-0.580;2023-08-31T03:01:51;4.47;;;1.95;;
69991;SDS011;57332;51.320;-0.580;2023-08-31T03:04:17;3.78;;;1.90;;
69991;SDS011;57332;51.320;-0.580;2023-08-31T03:06:44;4.18;;;1.88;;
69991;SDS011;57332;51.320;-0.580;2023-08-31T03:09:12;6.18;;;1.95;;
69991;SDS011;57332;51.320;-0.580;2023-08-31T03:11:40;4.72;;;1.95;;
69991;SDS011;57332;51.320;-0.580;2023-08-31T03:14:07;4.45;;;1.90;;
69991;SDS011;57332;51.320;-0.580;2023-08-31T03:16:36;4.03;;;1.63;;
69991;SDS011;57332;51.320;-0.580;2023-08-31T03:19:03;4.60;;;1.98;;
69991;SDS011;57332;51.320;-0.580;2023-08-31T03:21:30;4.45;;;1.55;;
69991;SDS011;57332;51.320;-0.580;2023-08-31T03:23:57;5.20;;;2.03;;
69991;SDS011;57332;51.320;-0.580;2023-08-31T03:26:24;3.45;;;1.60;;
69991;SDS011;57332;51.320;-0.580;2023-08-31T03:28:51;3.75;;;1.67;;
69991;SDS011;57332;51.320;-0.580;2023-08-31T03:31:18;4.22;;;1.52;;
69991;SDS011;57332;51.320;-0.580;2023-08-31T03:33:44;3.22;;;1.83;;
69991;SDS011;57332;51.320;-0.580;2023-08-31T03:36:11;4.88;;;1.73;;
69991;SDS011;57332;51.320;-0.580;2023-08-31T03:38:38;5.55;;;1.58;;
69991;SDS011;57332;51.320;-0.580;2023-08-31T03:41:05;5.43;;;2.00;;
69991;SDS011;57332;51.320;-0.580;2023-08-31T03:43:32;4.20;;;2.17;;
69991;SDS011;57332;51.320;-0.580;2023-08-31T03:45:59;2.88;;;1.77;;
69991;SDS011;57332;51.320;-0.580;2023-08-31T03:48:26;4.20;;;1.88;;
69991;SDS011;57332;51.320;-0.580;2023-08-31T03:50:54;4.75;;;1.67;;
69991;SDS011;57332;51.320;-0.580;2023-08-31T03:53:21;4.85;;;2.05;;
69991;SDS011;57332;51.320;-0.580;2023-08-31T03:55:47;3.92;;;1.95;;
69991;SDS011;57332;51.320;-0.580;2023-08-31T03:58:14;4.97;;;1.90;;
69991;SDS011;57332;51.320;-0.580;2023-08-31T04:00:41;4.72;;;2.00;;
69991;SDS011;57332;51.320;-0.580;2023-08-31T04:03:08;4.40;;;1.95;;
69991;SDS011;57332;51.320;-0.580;2023-08-31T04:05:36;3.67;;;1.80;;
69991;SDS011;57332;51.320;-0.580;2023-08-31T04:08:03;4.35;;;2.10;;
69991;SDS011;57332;51.320;-0.580;2023-08-31T04:10:30;4.28;;;1.70;;
69991;SDS011;57332;51.320;-0.580;2023-08-31T04:12:58;3.80;;;1.83;;
69991;SDS011;57332;51.320;-0.580;2023-08-31T04:15:25;3.65;;;1.90;;
69991;SDS011;57332;51.320;-0.580;2023-08-31T04:17:52;4.90;;;2.05;;
69991;SDS011;57332;51.320;-0.580;2023-08-31T04:20:19;4.63;;;2.10;;
69991;SDS011;57332;51.320;-0.580;2023-08-31T04:22:46;4.10;;;1.75;;
69991;SDS011;57332;51.320;-0.580;2023-08-31T04:25:13;5.30;;;1.90;;
69991;SDS011;57332;51.320;-0.580;2023-08-31T04:27:40;4.10;;;1.80;;
69991;SDS011;57332;51.320;-0.580;2023-08-31T04:30:07;4.85;;;1.65;;
69991;SDS011;57332;51.320;-0.580;2023-08-31T04:32:34;3.72;;;1.63;;
69991;SDS011;57332;51.320;-0.580;2023-08-31T04:35:05;4.80;;;2.00;;
69991;SDS011;57332;51.320;-0.580;2023-08-31T04:37:32;2.95;;;1.75;;
69991;SDS011;57332;51.320;-0.580;2023-08-31T04:39:59;3.58;;;1.80;;
69991;SDS011;57332;51.320;-0.580;2023-08-31T04:42:26;4.07;;;1.95;;
69991;SDS011;57332;51.320;-0.580;2023-08-31T04:44:54;3.20;;;2.00;;
69991;SDS011;57332;51.320;-0.580;2023-08-31T04:47:20;3.83;;;1.98;;
69991;SDS011;57332;51.320;-0.580;2023-08-31T04:49:47;4.13;;;2.10;;
69991;SDS011;57332;51.320;-0.580;2023-08-31T04:52:14;4.32;;;1.90;;
69991;SDS011;57332;51.320;-0.580;2023-08-31T04:54:41;4.20;;;1.83;;
69991;SDS011;57332;51.320;-0.580;2023-08-31T04:57:08;3.65;;;2.22;;
69991;SDS011;57332;51.320;-0.580;2023-08-31T04:59:35;4.35;;;1.73;;
69991;SDS011;57332;51.320;-0.580;2023-08-31T05:02:02;3.67;;;1.85;;
69991;SDS011;57332;51.320;-0.580;2023-08-31T05:04:29;3.17;;;1.80;;
69991;SDS011;57332;51.320;-0.580;2023-08-31T05:06:57;3.95;;;1.85;;
69991;SDS011;57332;51.320;-0.580;2023-08-31T05:09:24;4.25;;;1.95;;
69991;SDS011;57332;51.320;-0.580;2023-08-31T05:11:51;5.65;;;1.90;;
69991;SDS011;57332;51.320;-0.580;2023-08-31T05:14:18;4.40;;;1.80;;
69991;SDS011;57332;51.320;-0.580;2023-08-31T05:16:45;4.28;;;1.55;;
69991;SDS011;57332;51.320;-0.580;2023-08-31T05:19:12;3.88;;;1.52;;
69991;SDS011;57332;51.320;-0.580;2023-08-31T05:21:39;4.70;;;1.83;;
69991;SDS011;57332;51.320;-0.580;2023-08-31T05:24:06;5.55;;;2.15;;
69991;SDS011;57332;51.320;-0.580;2023-08-31T05:26:33;3.15;;;1.65;;
69991;SDS011;57332;51.320;-0.580;2023-08-31T05:29:00;5.60;;;2.10;;
69991;SDS011;57332;51.320;-0.580;2023-08-31T05:31:26;4.93;;;2.00;;
69991;SDS011;57332;51.320;-0.580;2023-08-31T05:33:53;3.83;;;1.73;;
69991;SDS011;57332;51.320;-0.580;2023-08-31T05:36:20;5.78;;;1.65;;
69991;SDS011;57332;51.320;-0.580;2023-08-31T05:38:47;3.90;;;1.95;;
69991;SDS011;57332;51.320;-0.580;2023-08-31T05:41:14;3.63;;;1.70;;
69991;SDS011;57332;51.320;-0.580;2023-08-31T05:43:41;5.30;;;2.20;;
69991;SDS011;57332;51.320;-0.580;2023-08-31T05:46:08;4.00;;;2.00;;
69991;SDS011;57332;51.320;-0.580;2023-08-31T05:48:35;3.80;;;1.80;;
69991;SDS011;57332;51.320;-0.580;2023-08-31T05:51:05;5.55;;;1.65;;
69991;SDS011;57332;51.320;-0.580;2023-08-31T05:53:32;3.47;;;1.90;;
69991;SDS011;57332;51.320;-0.580;2023-08-31T05:56:00;4.18;;;1.73;;
69991;SDS011;57332;51.320;-0.580;2023-08-31T05:58:31;6.43;;;1.90;;
69991;SDS011;57332;51.320;-0.580;2023-08-31T06:00:59;4.32;;;1.63;;
69991;SDS011;57332;51.320;-0.580;2023-08-31T06:03:26;4.03;;;1.83;;
69991;SDS011;57332;51.320;-0.580;2023-08-31T06:05:55;8.52;;;2.10;;
69991;SDS011;57332;51.320;-0.580;2023-08-31T06:08:22;4.10;;;1.88;;
69991;SDS011;57332;51.320;-0.580;2023-08-31T06:10:49;6.55;;;2.28;;
69991;SDS011;57332;51.320;-0.580;2023-08-31T06:13:16;4.65;;;1.85;;
69991;SDS011;57332;51.320;-0.580;2023-08-31T06:15:43;4.53;;;1.70;;
69991;SDS011;57332;51.320;-0.580;2023-08-31T06:18:11;3.97;;;1.92;;
69991;SDS011;57332;51.320;-0.580;2023-08-31T06:20:38;3.35;;;1.77;;
69991;SDS011;57332;51.320;-0.580;2023-08-31T06:23:05;5.95;;;2.03;;
69991;SDS011;57332;51.320;-0.580;2023-08-31T06:25:32;4.03;;;2.08;;
69991;SDS011;57332;51.320;-0.580;2023-08-31T06:27:59;3.53;;;1.60;;
69991;SDS011;57332;51.320;-0.580;2023-08-31T06:30:26;5.32;;;2.00;;
69991;SDS011;57332;51.320;-0.580;2023-08-31T06:32:53;4.35;;;1.90;;
69991;SDS011;57332;51.320;-0.580;2023-08-31T06:35:20;5.00;;;2.03;;
69991;SDS011;57332;51.320;-0.580;2023-08-31T06:37:47;3.72;;;1.95;;
69991;SDS011;57332;51.320;-0.580;2023-08-31T06:40:14;5.70;;;1.98;;
69991;SDS011;57332;51.320;-0.580;2023-08-31T06:42:41;4.60;;;2.00;;
69991;SDS011;57332;51.320;-0.580;2023-08-31T06:45:08;3.80;;;1.85;;
69991;SDS011;57332;51.320;-0.580;2023-08-31T06:47:35;4.03;;;1.80;;
69991;SDS011;57332;51.320;-0.580;2023-08-31T06:50:02;3.65;;;1.77;;
69991;SDS011;57332;51.320;-0.580;2023-08-31T06:52:30;3.17;;;1.65;;
69991;SDS011;57332;51.320;-0.580;2023-08-31T06:54:58;6.30;;;2.05;;
69991;SDS011;57332;51.320;-0.580;2023-08-31T06:57:26;2.58;;;1.40;;
69991;SDS011;57332;51.320;-0.580;2023-08-31T06:59:53;5.97;;;1.85;;
69991;SDS011;57332;51.320;-0.580;2023-08-31T07:02:20;4.45;;;1.90;;
69991;SDS011;57332;51.320;-0.580;2023-08-31T07:04:49;3.83;;;1.75;;
69991;SDS011;57332;51.320;-0.580;2023-08-31T07:07:16;5.30;;;1.98;;
69991;SDS011;57332;51.320;-0.580;2023-08-31T07:09:44;3.13;;;1.63;;
69991;SDS011;57332;51.320;-0.580;2023-08-31T07:12:11;4.28;;;1.90;;
69991;SDS011;57332;51.320;-0.580;2023-08-31T07:14:38;3.80;;;2.10;;
69991;SDS011;57332;51.320;-0.580;2023-08-31T07:17:05;3.60;;;2.00;;
69991;SDS011;57332;51.320;-0.580;2023-08-31T07:19:35;3.63;;;1.73;;
69991;SDS011;57332;51.320;-0.580;2023-08-31T07:22:02;5.60;;;1.60;;
69991;SDS011;57332;51.320;-0.580;2023-08-31T07:24:30;6.40;;;2.00;;
69991;SDS011;57332;51.320;-0.580;2023-08-31T07:26:57;5.25;;;1.85;;
69991;SDS011;57332;51.320;-0.580;2023-08-31T07:29:24;4.93;;;2.03;;
69991;SDS011;57332;51.320;-0.580;2023-08-31T07:31:51;4.72;;;2.20;;
69991;SDS011;57332;51.320;-0.580;2023-08-31T07:34:18;3.78;;;1.90;;
69991;SDS011;57332;51.320;-0.580;2023-08-31T07:36:45;4.70;;;2.10;;
69991;SDS011;57332;51.320;-0.580;2023-08-31T07:39:12;4.97;;;1.80;;
69991;SDS011;57332;51.320;-0.580;2023-08-31T07:41:39;3.40;;;1.90;;
69991;SDS011;57332;51.320;-0.580;2023-08-31T07:44:06;3.05;;;1.98;;
69991;SDS011;57332;51.320;-0.580;2023-08-31T07:46:33;5.70;;;2.08;;
69991;SDS011;57332;51.320;-0.580;2023-08-31T07:49:00;4.57;;;1.70;;
69991;SDS011;57332;51.320;-0.580;2023-08-31T07:51:26;7.28;;;2.10;;
69991;SDS011;57332;51.320;-0.580;2023-08-31T07:53:53;3.72;;;2.08;;
69991;SDS011;57332;51.320;-0.580;2023-08-31T07:56:21;6.13;;;2.20;;
69991;SDS011;57332;51.320;-0.580;2023-08-31T07:58:48;5.95;;;1.80;;
69991;SDS011;57332;51.320;-0.580;2023-08-31T08:01:15;3.17;;;1.63;;
69991;SDS011;57332;51.320;-0.580;2023-08-31T08:03:42;5.85;;;1.95;;
69991;SDS011;57332;51.320;-0.580;2023-08-31T08:06:09;6.47;;;2.65;;
69991;SDS011;57332;51.320;-0.580;2023-08-31T08:08:37;5.45;;;1.70;;
69991;SDS011;57332;51.320;-0.580;2023-08-31T08:11:04;4.25;;;1.80;;
69991;SDS011;57332;51.320;-0.580;2023-08-31T08:13:31;6.97;;;2.30;;
69991;SDS011;57332;51.320;-0.580;2023-08-31T08:15:58;3.30;;;1.67;;
69991;SDS011;57332;51.320;-0.580;2023-08-31T08:18:25;5.90;;;1.95;;
69991;SDS011;57332;51.320;-0.580;2023-08-31T08:20:51;3.58;;;1.88;;
69991;SDS011;57332;51.320;-0.580;2023-08-31T08:23:18;4.60;;;1.83;;
69991;SDS011;57332;51.320;-0.580;2023-08-31T08:25:45;4.32;;;2.05;;
69991;SDS011;57332;51.320;-0.580;2023-08-31T08:28:12;4.47;;;1.92;;
69991;SDS011;57332;51.320;-0.580;2023-08-31T08:30:39;4.85;;;2.13;;
69991;SDS011;57332;51.320;-0.580;2023-08-31T08:33:07;5.80;;;1.90;;
69991;SDS011;57332;51.320;-0.580;2023-08-31T08:35:34;4.13;;;2.00;;
69991;SDS011;57332;51.320;-0.580;2023-08-31T08:38:03;4.55;;;1.98;;
69991;SDS011;57332;51.320;-0.580;2023-08-31T08:40:30;4.47;;;2.40;;
69991;SDS011;57332;51.320;-0.580;2023-08-31T08:42:57;5.95;;;2.22;;
69991;SDS011;57332;51.320;-0.580;2023-08-31T08:45:25;5.53;;;2.17;;
69991;SDS011;57332;51.320;-0.580;2023-08-31T08:47:55;6.28;;;2.45;;
69991;SDS011;57332;51.320;-0.580;2023-08-31T08:50:22;6.03;;;2.25;;
69991;SDS011;57332;51.320;-0.580;2023-08-31T08:52:50;4.60;;;2.15;;
69991;SDS011;57332;51.320;-0.580;2023-08-31T08:55:18;5.75;;;2.20;;
69991;SDS011;57332;51.320;-0.580;2023-08-31T08:57:45;6.15;;;2.05;;
69991;SDS011;57332;51.320;-0.580;2023-08-31T09:00:12;5.43;;;2.20;;
69991;SDS011;57332;51.320;-0.580;2023-08-31T09:02:39;4.55;;;2.40;;
69991;SDS011;57332;51.320;-0.580;2023-08-31T09:05:07;4.85;;;2.67;;
69991;SDS011;57332;51.320;-0.580;2023-08-31T09:07:38;5.03;;;2.60;;
69991;SDS011;57332;51.320;-0.580;2023-08-31T09:10:05;6.97;;;2.28;;
69991;SDS011;57332;51.320;-0.580;2023-08-31T09:12:35;4.65;;;2.33;;
69991;SDS011;57332;51.320;-0.580;2023-08-31T09:15:03;5.50;;;2.05;;
69991;SDS011;57332;51.320;-0.580;2023-08-31T09:17:42;5.63;;;2.25;;
69991;SDS011;57332;51.320;-0.580;2023-08-31T09:20:13;5.80;;;2.58;;
69991;SDS011;57332;51.320;-0.580;2023-08-31T09:22:43;4.35;;;2.00;;
69991;SDS011;57332;51.320;-0.580;2023-08-31T09:25:11;6.88;;;2.65;;
69991;SDS011;57332;51.320;-0.580;2023-08-31T09:27:38;5.80;;;2.85;;
69991;SDS011;57332;51.320;-0.580;2023-08-31T09:30:07;6.53;;;2.67;;
69991;SDS011;57332;51.320;-0.580;2023-08-31T09:32:35;5.82;;;2.08;;
69991;SDS011;57332;51.320;-0.580;2023-08-31T09:35:03;5.15;;;2.30;;
69991;SDS011;57332;51.320;-0.580;2023-08-31T09:37:56;5.35;;;2.20;;
69991;SDS011;57332;51.320;-0.580;2023-08-31T09:40:29;6.57;;;2.10;;
69991;SDS011;57332;51.320;-0.580;2023-08-31T09:42:56;5.32;;;2.80;;
69991;SDS011;57332;51.320;-0.580;2023-08-31T09:45:29;6.82;;;2.15;;
69991;SDS011;57332;51.320;-0.580;2023-08-31T09:48:11;6.07;;;2.60;;
69991;SDS011;57332;51.320;-0.580;2023-08-31T09:50:40;4.07;;;2.28;;
69991;SDS011;57332;51.320;-0.580;2023-08-31T09:53:09;6.45;;;2.67;;
69991;SDS011;57332;51.320;-0.580;2023-08-31T09:55:38;5.75;;;2.30;;
69991;SDS011;57332;51.320;-0.580;2023-08-31T09:58:05;6.72;;;2.50;;
69991;SDS011;57332;51.320;-0.580;2023-08-31T10:00:41;5.30;;;2.17;;
69991;SDS011;57332;51.320;-0.580;2023-08-31T10:03:08;8.25;;;2.70;;
69991;SDS011;57332;51.320;-0.580;2023-08-31T10:05:37;6.00;;;2.33;;
69991;SDS011;57332;51.320;-0.580;2023-08-31T10:08:04;6.82;;;3.00;;
69991;SDS011;57332;51.320;-0.580;2023-08-31T10:10:31;5.22;;;2.50;;
69991;SDS011;57332;51.320;-0.580;2023-08-31T10:12:58;6.63;;;2.28;;
69991;SDS011;57332;51.320;-0.580;2023-08-31T10:15:26;5.38;;;2.70;;
69991;SDS011;57332;51.320;-0.580;2023-08-31T10:17:56;5.70;;;2.33;;
69991;SDS011;57332;51.320;-0.580;2023-08-31T10:20:25;6.25;;;2.55;;
69991;SDS011;57332;51.320;-0.580;2023-08-31T10:22:55;7.00;;;2.50;;
69991;SDS011;57332;51.320;-0.580;2023-08-31T10:25:24;6.25;;;2.33;;
69991;SDS011;57332;51.320;-0.580;2023-08-31T10:27:53;6.93;;;2.85;;
69991;SDS011;57332;51.320;-0.580;2023-08-31T10:35:54;6.93;;;2.60;;
69991;SDS011;57332;51.320;-0.580;2023-08-31T10:41:17;5.35;;;2.53;;
69991;SDS011;57332;51.320;-0.580;2023-08-31T10:43:46;6.22;;;2.60;;
69991;SDS011;57332;51.320;-0.580;2023-08-31T10:48:50;6.53;;;2.42;;
69991;SDS011;57332;51.320;-0.580;2023-08-31T10:51:17;6.43;;;2.80;;
69991;SDS011;57332;51.320;-0.580;2023-08-31T10:53:45;5.20;;;2.80;;
69991;SDS011;57332;51.320;-0.580;2023-08-31T10:56:14;5.90;;;2.15;;
69991;SDS011;57332;51.320;-0.580;2023-08-31T10:58:41;6.47;;;2.55;;
69991;SDS011;57332;51.320;-0.580;2023-08-31T11:01:08;5.07;;;1.92;;
69991;SDS011;57332;51.320;-0.580;2023-08-31T11:04:18;5.95;;;1.98;;
69991;SDS011;57332;51.320;-0.580;2023-08-31T11:06:26;4.93;;;2.10;;
69991;SDS011;57332;51.320;-0.580;2023-08-31T11:08:56;4.97;;;1.95;;
69991;SDS011;57332;51.320;-0.580;2023-08-31T11:11:23;6.47;;;2.30;;
69991;SDS011;57332;51.320;-0.580;2023-08-31T11:13:56;5.47;;;2.05;;
69991;SDS011;57332;51.320;-0.580;2023-08-31T11:16:23;5.07;;;2.00;;
69991;SDS011;57332;51.320;-0.580;2023-08-31T11:18:50;6.20;;;2.30;;
69991;SDS011;57332;51.320;-0.580;2023-08-31T11:21:17;4.88;;;2.13;;
69991;SDS011;57332;51.320;-0.580;2023-08-31T11:23:44;3.42;;;1.70;;
69991;SDS011;57332;51.320;-0.580;2023-08-31T11:26:11;4.03;;;2.28;;
69991;SDS011;57332;51.320;-0.580;2023-08-31T11:28:38;6.22;;;1.80;;
69991;SDS011;57332;51.320;-0.580;2023-08-31T11:31:05;3.90;;;2.05;;
69991;SDS011;57332;51.320;-0.580;2023-08-31T11:33:31;4.35;;;1.83;;
69991;SDS011;57332;51.320;-0.580;2023-08-31T11:36:00;4.85;;;1.98;;
69991;SDS011;57332;51.320;-0.580;2023-08-31T11:38:27;6.82;;;2.20;;
69991;SDS011;57332;51.320;-0.580;2023-08-31T11:40:58;5.45;;;2.10;;
69991;SDS011;57332;51.320;-0.580;2023-08-31T11:43:25;4.88;;;2.30;;
69991;SDS011;57332;51.320;-0.580;2023-08-31T11:45:52;3.92;;;2.05;;
69991;SDS011;57332;51.320;-0.580;2023-08-31T11:48:19;3.20;;;1.85;;
69991;SDS011;57332;51.320;-0.580;2023-08-31T11:50:46;4.45;;;2.20;;
69991;SDS011;57332;51.320;-0.580;2023-08-31T11:53:13;5.72;;;2.58;;
69991;SDS011;57332;51.320;-0.580;2023-08-31T11:55:51;6.85;;;2.17;;
69991;SDS011;57332;51.320;-0.580;2023-08-31T11:58:18;3.60;;;1.58;;
69991;SDS011;57332;51.320;-0.580;2023-08-31T12:00:45;5.32;;;1.92;;
69991;SDS011;57332;51.320;-0.580;2023-08-31T12:03:13;3.53;;;1.55;;
69991;SDS011;57332;51.320;-0.580;2023-08-31T12:05:44;4.05;;;1.33;;
69991;SDS011;57332;51.320;-0.580;2023-08-31T12:08:11;3.38;;;1.45;;
69991;SDS011;57332;51.320;-0.580;2023-08-31T12:10:42;2.28;;;1.42;;
69991;SDS011;57332;51.320;-0.580;2023-08-31T12:13:09;5.28;;;1.67;;
69991;SDS011;57332;51.320;-0.580;2023-08-31T12:15:37;3.90;;;1.55;;
69991;SDS011;57332;51.320;-0.580;2023-08-31T12:18:10;3.58;;;1.35;;
69991;SDS011;57332;51.320;-0.580;2023-08-31T12:23:10;4.55;;;1.52;;
69991;SDS011;57332;51.320;-0.580;2023-08-31T12:25:37;3.38;;;1.35;;
69991;SDS011;57332;51.320;-0.580;2023-08-31T12:28:04;3.17;;;1.60;;
69991;SDS011;57332;51.320;-0.580;2023-08-31T12:30:31;2.85;;;1.25;;
69991;SDS011;57332;51.320;-0.580;2023-08-31T12:32:58;3.20;;;1.25;;
69991;SDS011;57332;51.320;-0.580;2023-08-31T12:35:25;2.05;;;1.10;;
69991;SDS011;57332;51.320;-0.580;2023-08-31T12:37:52;4.47;;;1.40;;
69991;SDS011;57332;51.320;-0.580;2023-08-31T12:40:19;4.65;;;1.67;;
69991;SDS011;57332;51.320;-0.580;2023-08-31T12:42:46;4.75;;;1.42;;
69991;SDS011;57332;51.320;-0.580;2023-08-31T12:45:13;3.95;;;1.40;;
69991;SDS011;57332;51.320;-0.580;2023-08-31T12:47:40;3.33;;;1.40;;
69991;SDS011;57332;51.320;-0.580;2023-08-31T12:50:07;3.63;;;1.60;;
69991;SDS011;57332;51.320;-0.580;2023-08-31T12:52:34;8.13;;;2.03;;
69991;SDS011;57332;51.320;-0.580;2023-08-31T12:55:01;2.92;;;1.60;;
69991;SDS011;57332;51.320;-0.580;2023-08-31T12:57:28;5.13;;;1.58;;
69991;SDS011;57332;51.320;-0.580;2023-08-31T12:59:55;4.90;;;1.65;;
69991;SDS011;57332;51.320;-0.580;2023-08-31T13:02:22;5.97;;;1.92;;
69991;SDS011;57332;51.320;-0.580;2023-08-31T13:04:49;4.65;;;1.77;;
69991;SDS011;57332;51.320;-0.580;2023-08-31T13:07:16;3.42;;;1.75;;
69991;SDS011;57332;51.320;-0.580;2023-08-31T13:09:43;5.53;;;1.73;;
69991;SDS011;57332;51.320;-0.580;2023-08-31T13:12:12;4.68;;;1.50;;
69991;SDS011;57332;51.320;-0.580;2023-08-31T13:14:39;3.58;;;1.50;;
69991;SDS011;57332;51.320;-0.580;2023-08-31T13:17:06;4.00;;;1.60;;
69991;SDS011;57332;51.320;-0.580;2023-08-31T13:19:33;4.95;;;1.20;;
69991;SDS011;57332;51.320;-0.580;2023-08-31T13:22:00;3.28;;;1.40;;
69991;SDS011;57332;51.320;-0.580;2023-08-31T13:24:27;3.08;;;1.50;;
69991;SDS011;57332;51.320;-0.580;2023-08-31T13:26:53;3.42;;;1.48;;
69991;SDS011;57332;51.320;-0.580;2023-08-31T13:29:21;2.45;;;1.40;;
69991;SDS011;57332;51.320;-0.580;2023-08-31T13:31:48;2.47;;;1.15;;
69991;SDS011;57332;51.320;-0.580;2023-08-31T13:34:15;2.33;;;1.20;;
69991;SDS011;57332;51.320;-0.580;2023-08-31T13:36:42;3.95;;;1.17;;
69991;SDS011;57332;51.320;-0.580;2023-08-31T13:39:09;2.47;;;0.80;;
69991;SDS011;57332;51.320;-0.580;2023-08-31T13:41:36;2.22;;;1.20;;
69991;SDS011;57332;51.320;-0.580;2023-08-31T13:44:03;3.15;;;1.23;;
69991;SDS011;57332;51.320;-0.580;2023-08-31T13:46:30;3.58;;;1.40;;
69991;SDS011;57332;51.320;-0.580;2023-08-31T13:48:58;3.72;;;1.40;;
69991;SDS011;57332;51.320;-0.580;2023-08-31T13:51:25;3.13;;;1.30;;
69991;SDS011;57332;51.320;-0.580;2023-08-31T13:53:52;3.15;;;1.05;;
69991;SDS011;57332;51.320;-0.580;2023-08-31T13:56:19;4.47;;;1.40;;
69991;SDS011;57332;51.320;-0.580;2023-08-31T13:58:46;3.60;;;1.10;;
69991;SDS011;57332;51.320;-0.580;2023-08-31T14:01:13;3.63;;;1.38;;
69991;SDS011;57332;51.320;-0.580;2023-08-31T14:03:40;2.70;;;1.30;;
69991;SDS011;57332;51.320;-0.580;2023-08-31T14:06:08;3.70;;;1.30;;
69991;SDS011;57332;51.320;-0.580;2023-08-31T14:08:35;3.45;;;1.15;;
69991;SDS011;57332;51.320;-0.580;2023-08-31T14:11:01;3.58;;;1.10;;
69991;SDS011;57332;51.320;-0.580;2023-08-31T14:13:29;3.15;;;1.17;;
69991;SDS011;57332;51.320;-0.580;2023-08-31T14:15:56;3.80;;;1.25;;
69991;SDS011;57332;51.320;-0.580;2023-08-31T14:18:24;3.35;;;1.50;;
69991;SDS011;57332;51.320;-0.580;2023-08-31T14:20:52;4.10;;;1.13;;
69991;SDS011;57332;51.320;-0.580;2023-08-31T14:23:19;2.85;;;1.30;;
69991;SDS011;57332;51.320;-0.580;2023-08-31T14:25:46;3.72;;;1.15;;
69991;SDS011;57332;51.320;-0.580;2023-08-31T14:28:13;4.18;;;1.45;;
69991;SDS011;57332;51.320;-0.580;2023-08-31T14:30:40;2.75;;;1.48;;
69991;SDS011;57332;51.320;-0.580;2023-08-31T14:33:07;4.18;;;1.50;;
69991;SDS011;57332;51.320;-0.580;2023-08-31T14:35:37;2.78;;;1.40;;
69991;SDS011;57332;51.320;-0.580;2023-08-31T14:38:04;2.63;;;1.10;;
69991;SDS011;57332;51.320;-0.580;2023-08-31T14:40:31;4.03;;;1.23;;
69991;SDS011;57332;51.320;-0.580;2023-08-31T14:43:00;2.40;;;1.00;;
69991;SDS011;57332;51.320;-0.580;2023-08-31T14:45:30;3.20;;;1.40;;
69991;SDS011;57332;51.320;-0.580;2023-08-31T14:47:57;4.50;;;1.10;;
69991;SDS011;57332;51.320;-0.580;2023-08-31T14:50:24;2.53;;;0.90;;
69991;SDS011;57332;51.320;-0.580;2023-08-31T14:52:51;2.75;;;1.00;;
69991;SDS011;57332;51.320;-0.580;2023-08-31T14:55:18;2.20;;;0.95;;